Cut Bank, Montana
Current Conditions -  °F | °C
As of 1:56 PM on Thursday 20 Nov 2014 (Local Time) from KCTB Reporting Station
Clear Clear  
Wind Chill: 36°   Ceiling: Unl
Heat Index: 45°   Visibility: 10mi
Dew Point: 26°   Wind: 26mph
Humidity: 48%   Direction: 260°W
Pressure: 29.75"   Gusts: 35mph
Location:  48.63°N, 112.33°W
Report Text: KCTB 202056Z AUTO 26023G30KT 10SM CLR 07/M03 A2975 RMK AO2 PK WND 25033/2029 SLP101 T00721033 58013
Loading
Personal Weather Stations






























Interactive Weather Map New forecast layout! Learn more

10-Day Weather Forecast

Advertisements
Track Severe Weather on mobile